createdAt,value
2017-04-26T00:00:13.604Z,3.1
2017-04-26T00:00:32.246Z,3.2
2017-04-26T00:00:50.887Z,3.2
2017-04-26T00:01:09.527Z,3.2
2017-04-26T00:01:28.170Z,3.2
2017-04-26T00:01:46.834Z,3.2
2017-04-26T00:02:05.480Z,3.2
2017-04-26T00:02:24.122Z,3.1
2017-04-26T00:02:42.760Z,3.2
2017-04-26T00:03:01.398Z,3.2
2017-04-26T00:03:20.034Z,3.2
2017-04-26T00:03:38.672Z,3.1
2017-04-26T00:03:57.311Z,3.1
2017-04-26T00:04:15.950Z,3.2
2017-04-26T00:04:34.593Z,3.2
2017-04-26T00:04:53.238Z,3.2
2017-04-26T00:05:11.907Z,3.2
2017-04-26T00:05:30.540Z,3.2
2017-04-26T00:05:49.177Z,3.2
2017-04-26T00:06:07.812Z,3.2
2017-04-26T00:06:26.452Z,3.2
2017-04-26T00:06:45.092Z,3.2
2017-04-26T00:07:03.759Z,3.2
2017-04-26T00:07:22.399Z,3.2
2017-04-26T00:07:41.044Z,3.2
2017-04-26T00:07:59.687Z,3.2
2017-04-26T00:08:18.331Z,3.2
2017-04-26T00:08:36.996Z,3.2
2017-04-26T00:08:55.636Z,3.2
2017-04-26T00:09:14.282Z,3.2
2017-04-26T00:09:32.925Z,3.2
2017-04-26T00:09:51.565Z,3.2
2017-04-26T00:10:10.205Z,3.2
2017-04-26T00:10:28.838Z,3.2
2017-04-26T00:10:47.481Z,3.2
2017-04-26T00:11:06.117Z,3.2
2017-04-26T00:11:24.750Z,3.1
2017-04-26T00:11:43.412Z,3.1
2017-04-26T00:12:02.075Z,3.1
2017-04-26T00:12:20.734Z,3.1
2017-04-26T00:12:39.372Z,3.1
2017-04-26T00:12:58.019Z,3.1
2017-04-26T00:13:16.659Z,3.1
2017-04-26T00:13:35.332Z,3.2
2017-04-26T00:13:53.975Z,3.2
2017-04-26T00:14:12.612Z,3.2
2017-04-26T00:14:31.250Z,3.2
2017-04-26T00:14:49.888Z,3.2
2017-04-26T00:15:08.524Z,3.2
2017-04-26T00:15:27.163Z,3.2
2017-04-26T00:15:45.802Z,3.2
2017-04-26T00:16:04.437Z,3.2
2017-04-26T00:16:23.074Z,3.2
2017-04-26T00:16:41.723Z,3.2
2017-04-26T00:17:00.368Z,3.2
2017-04-26T00:17:19.008Z,3.2
2017-04-26T00:17:37.656Z,3.2
2017-04-26T00:17:56.292Z,3.2
2017-04-26T00:18:14.930Z,3.2
2017-04-26T00:18:33.570Z,3.2
2017-04-26T00:18:52.209Z,3.2
2017-04-26T00:19:10.846Z,3.2
2017-04-26T00:19:29.487Z,3.2
2017-04-26T00:19:48.129Z,3.2
2017-04-26T00:20:06.786Z,3.2
2017-04-26T00:20:25.430Z,3.2
2017-04-26T00:20:44.071Z,3.1
2017-04-26T00:21:02.709Z,3.2
2017-04-26T00:21:21.347Z,3.1
2017-04-26T00:21:39.993Z,3.1
2017-04-26T00:21:58.630Z,3.1
2017-04-26T00:22:17.269Z,3.1
2017-04-26T00:22:35.906Z,3.1
2017-04-26T00:22:54.570Z,3.1
2017-04-26T00:23:13.208Z,3.1
2017-04-26T00:23:31.884Z,3.1
2017-04-26T00:23:50.524Z,3.1
2017-04-26T00:24:09.167Z,3.1
2017-04-26T00:24:27.805Z,3.1
2017-04-26T00:24:46.447Z,3.1
2017-04-26T00:25:05.091Z,3.1
2017-04-26T00:25:23.725Z,3.1
2017-04-26T00:25:42.361Z,3.1
2017-04-26T00:26:01.000Z,3.1
2017-04-26T00:26:19.641Z,3.1
2017-04-26T00:26:38.282Z,3.1
2017-04-26T00:26:56.952Z,3.1
2017-04-26T00:27:15.590Z,3.1
2017-04-26T00:27:34.262Z,3.1
2017-04-26T00:27:52.910Z,3.1
2017-04-26T00:28:11.551Z,3.1
2017-04-26T00:28:30.224Z,3
2017-04-26T00:28:48.862Z,3
2017-04-26T00:29:07.500Z,3
2017-04-26T00:29:26.134Z,3
2017-04-26T00:29:44.773Z,3
2017-04-26T00:30:03.406Z,3
2017-04-26T00:30:22.049Z,3
2017-04-26T00:30:40.690Z,3
2017-04-26T00:30:59.329Z,3
2017-04-26T00:31:17.966Z,3
2017-04-26T00:31:36.609Z,3
2017-04-26T00:31:55.279Z,3
2017-04-26T00:32:13.917Z,3
2017-04-26T00:32:32.559Z,3
2017-04-26T00:32:51.204Z,3
2017-04-26T00:33:09.844Z,3
2017-04-26T00:33:28.508Z,3
2017-04-26T00:33:47.147Z,3
2017-04-26T00:34:05.789Z,3
2017-04-26T00:34:24.430Z,3
2017-04-26T00:34:43.068Z,3
2017-04-26T00:35:01.730Z,3
2017-04-26T00:35:20.367Z,3
2017-04-26T00:35:39.006Z,3
2017-04-26T00:35:57.642Z,3
2017-04-26T00:36:16.287Z,3
2017-04-26T00:36:34.926Z,2.9
2017-04-26T00:36:53.566Z,2.9
2017-04-26T00:37:12.217Z,2.9
2017-04-26T00:37:30.860Z,2.9
2017-04-26T00:37:49.497Z,2.9
2017-04-26T00:38:08.146Z,2.9
2017-04-26T00:38:26.812Z,2.9
2017-04-26T00:38:45.470Z,2.9
2017-04-26T00:39:04.116Z,2.9
2017-04-26T00:39:22.752Z,2.9
2017-04-26T00:39:41.394Z,2.9
2017-04-26T00:40:00.034Z,2.9
2017-04-26T00:40:18.676Z,2.9
2017-04-26T00:40:37.316Z,2.9
2017-04-26T00:40:55.952Z,2.9
2017-04-26T00:41:14.597Z,2.9
2017-04-26T00:41:33.238Z,2.9
2017-04-26T00:41:51.905Z,2.9
2017-04-26T00:42:10.541Z,2.9
2017-04-26T00:42:29.181Z,2.9
2017-04-26T00:42:47.825Z,2.9
2017-04-26T00:43:06.466Z,2.8
2017-04-26T00:43:25.098Z,2.8
2017-04-26T00:43:43.736Z,2.8
2017-04-26T00:44:02.403Z,2.9
2017-04-26T00:44:21.043Z,2.9
2017-04-26T00:44:39.690Z,2.9
2017-04-26T00:44:58.330Z,2.9
2017-04-26T00:45:16.980Z,2.9
2017-04-26T00:45:35.625Z,3
2017-04-26T00:45:54.261Z,3
2017-04-26T00:46:12.897Z,3
2017-04-26T00:46:31.539Z,3
2017-04-26T00:46:50.207Z,3
2017-04-26T00:47:08.851Z,3
2017-04-26T00:47:27.483Z,3
2017-04-26T00:47:46.124Z,3
2017-04-26T00:48:04.766Z,3
2017-04-26T00:48:23.406Z,3
2017-04-26T00:48:42.054Z,3
2017-04-26T00:49:00.691Z,3
2017-04-26T00:49:19.343Z,3
2017-04-26T00:49:37.988Z,3
2017-04-26T00:49:56.649Z,3
2017-04-26T00:50:15.285Z,3
2017-04-26T00:50:33.919Z,3
2017-04-26T00:50:52.557Z,3
2017-04-26T00:51:11.199Z,3
2017-04-26T00:51:29.839Z,3.1
2017-04-26T00:51:48.472Z,3.1
2017-04-26T00:52:07.110Z,3.1
2017-04-26T00:52:25.747Z,3.1
2017-04-26T00:52:44.384Z,3.1
2017-04-26T00:53:03.016Z,3.1
2017-04-26T00:53:21.700Z,3.1
2017-04-26T00:53:40.345Z,3.1
2017-04-26T00:53:58.992Z,3.1
2017-04-26T00:54:17.636Z,3.1
2017-04-26T00:54:36.299Z,3.1
2017-04-26T00:54:54.944Z,3.1
2017-04-26T00:55:13.585Z,3.1
2017-04-26T00:55:32.229Z,3.1
2017-04-26T00:55:50.872Z,3.1
2017-04-26T00:56:09.506Z,3.1
2017-04-26T00:56:28.147Z,3.1
2017-04-26T00:56:46.815Z,3.1
2017-04-26T00:57:05.451Z,3.1
2017-04-26T00:57:24.088Z,3.1
2017-04-26T00:57:42.723Z,3.1
2017-04-26T00:58:01.361Z,3.1
2017-04-26T00:58:20.001Z,3.1
2017-04-26T00:58:38.638Z,3.1
2017-04-26T00:58:57.275Z,3.1
2017-04-26T00:59:15.911Z,3.1
2017-04-26T00:59:34.551Z,3.1
2017-04-26T00:59:53.200Z,3.1
2017-04-26T01:00:11.866Z,3.1
2017-04-26T01:00:30.502Z,3.1
2017-04-26T01:00:49.140Z,3.1
2017-04-26T01:01:07.780Z,3.1
2017-04-26T01:01:26.416Z,3.1
2017-04-26T01:01:45.088Z,3.1
2017-04-26T01:02:03.728Z,3.1
2017-04-26T01:02:22.367Z,3.1
2017-04-26T01:02:41.009Z,3.1
2017-04-26T01:02:59.651Z,3.1
2017-04-26T01:03:18.285Z,3.1
2017-04-26T01:03:36.928Z,3.1
2017-04-26T01:03:55.566Z,3.1
2017-04-26T01:04:14.211Z,3.1
2017-04-26T01:04:32.855Z,3
2017-04-26T01:04:51.502Z,3
2017-04-26T01:05:10.180Z,3
2017-04-26T01:05:28.817Z,3
2017-04-26T01:05:47.454Z,3
2017-04-26T01:06:06.094Z,3
2017-04-26T01:06:24.729Z,3
2017-04-26T01:06:43.370Z,3
2017-04-26T01:07:02.015Z,3
2017-04-26T01:07:20.658Z,3
2017-04-26T01:07:39.295Z,3
2017-04-26T01:07:57.935Z,3
2017-04-26T01:08:16.599Z,3
2017-04-26T01:08:35.243Z,3
2017-04-26T01:08:53.881Z,3
2017-04-26T01:09:12.521Z,3
2017-04-26T01:09:31.161Z,2.9
2017-04-26T01:09:49.801Z,3
2017-04-26T01:10:08.434Z,2.9
2017-04-26T01:10:27.094Z,3
2017-04-26T01:10:45.728Z,3
2017-04-26T01:11:04.377Z,2.9
2017-04-26T01:11:23.016Z,2.9
2017-04-26T01:11:41.682Z,2.9
2017-04-26T01:12:00.320Z,2.9
2017-04-26T01:12:18.955Z,2.9
2017-04-26T01:12:37.595Z,2.9
2017-04-26T01:12:56.234Z,2.8
2017-04-26T01:13:14.867Z,2.8
2017-04-26T01:13:33.507Z,2.8
2017-04-26T01:13:52.150Z,2.8
2017-04-26T01:14:10.787Z,2.8
2017-04-26T01:14:29.427Z,2.8
2017-04-26T01:14:48.064Z,2.8
2017-04-26T01:15:06.723Z,2.8
2017-04-26T01:15:25.354Z,2.8
2017-04-26T01:15:44.021Z,2.8
2017-04-26T01:16:02.667Z,2.8
2017-04-26T01:16:21.302Z,2.8
2017-04-26T01:16:39.942Z,2.8
2017-04-26T01:16:58.581Z,2.8
2017-04-26T01:17:17.218Z,2.8
2017-04-26T01:17:35.855Z,2.8
2017-04-26T01:17:54.497Z,2.8
2017-04-26T01:18:13.138Z,2.8
2017-04-26T01:18:31.796Z,2.8
2017-04-26T01:18:50.439Z,2.8
2017-04-26T01:19:09.082Z,2.9
2017-04-26T01:19:27.723Z,2.9
2017-04-26T01:19:46.369Z,2.9
2017-04-26T01:20:05.033Z,2.9
2017-04-26T01:20:23.671Z,2.9
2017-04-26T01:20:42.310Z,2.9
2017-04-26T01:21:00.957Z,2.9
2017-04-26T01:21:19.599Z,2.9
2017-04-26T01:21:38.240Z,2.9
2017-04-26T01:21:56.879Z,2.9
2017-04-26T01:22:15.513Z,2.9
2017-04-26T01:22:34.150Z,2.9
2017-04-26T01:22:52.785Z,2.9
2017-04-26T01:23:11.433Z,2.9
2017-04-26T01:23:30.086Z,2.9
2017-04-26T01:23:48.748Z,2.9
2017-04-26T01:24:07.386Z,2.9
2017-04-26T01:24:26.021Z,2.9
2017-04-26T01:24:44.658Z,2.9
2017-04-26T01:25:03.294Z,3
2017-04-26T01:25:21.931Z,3
2017-04-26T01:25:40.572Z,3
2017-04-26T01:25:59.210Z,3
2017-04-26T01:26:17.877Z,3
2017-04-26T01:26:36.536Z,3
2017-04-26T01:26:55.171Z,3
2017-04-26T01:27:13.817Z,3
2017-04-26T01:27:32.459Z,3
2017-04-26T01:27:51.095Z,3
2017-04-26T01:28:09.727Z,3
2017-04-26T01:28:28.362Z,3
2017-04-26T01:28:47.005Z,3
2017-04-26T01:29:05.641Z,3
2017-04-26T01:29:24.278Z,3
2017-04-26T01:29:42.915Z,3
2017-04-26T01:30:01.584Z,3
2017-04-26T01:30:20.218Z,3
2017-04-26T01:30:38.855Z,3
2017-04-26T01:30:57.489Z,3
2017-04-26T01:31:16.127Z,3
2017-04-26T01:31:34.775Z,3
2017-04-26T01:31:53.413Z,3.1
2017-04-26T01:32:12.047Z,3.1
2017-04-26T01:32:30.691Z,3.1
2017-04-26T01:32:49.324Z,3.1
2017-04-26T01:33:07.971Z,3.1
2017-04-26T01:33:26.642Z,3.1
2017-04-26T01:33:45.281Z,3.1
2017-04-26T01:34:03.920Z,3.1
2017-04-26T01:34:22.557Z,3.1
2017-04-26T01:34:41.201Z,3.1
2017-04-26T01:34:59.841Z,3.1
2017-04-26T01:35:18.482Z,3.1
2017-04-26T01:35:37.117Z,3.1
2017-04-26T01:35:55.754Z,3.1
2017-04-26T01:36:14.390Z,3.1
2017-04-26T01:36:33.029Z,3.1
2017-04-26T01:36:51.725Z,3.1
2017-04-26T01:37:10.360Z,3.1
2017-04-26T01:37:29.006Z,3.1
2017-04-26T01:37:47.643Z,3.1
2017-04-26T01:38:06.282Z,3.1
2017-04-26T01:38:24.946Z,3.1
2017-04-26T01:38:43.583Z,3.1
2017-04-26T01:39:02.228Z,3.1
2017-04-26T01:39:20.873Z,3.1
2017-04-26T01:39:39.515Z,3.1
2017-04-26T01:39:58.153Z,3.1
2017-04-26T01:40:16.796Z,3.1
2017-04-26T01:40:35.431Z,3.1
2017-04-26T01:40:54.068Z,3.1
2017-04-26T01:41:12.713Z,3.1
2017-04-26T01:41:31.368Z,3.1
2017-04-26T01:41:50.014Z,3.1
2017-04-26T01:42:08.671Z,3.1
2017-04-26T01:42:27.306Z,3.1
2017-04-26T01:42:45.942Z,3.1
2017-04-26T01:43:04.581Z,3.1
2017-04-26T01:43:23.219Z,3.1
2017-04-26T01:43:41.863Z,3.1
2017-04-26T01:44:00.501Z,3.1
2017-04-26T01:44:19.138Z,3.1
2017-04-26T01:44:37.780Z,3.1
2017-04-26T01:44:56.444Z,3.1
2017-04-26T01:45:15.083Z,3.1
2017-04-26T01:45:33.725Z,3.1
2017-04-26T01:45:52.360Z,3.1
2017-04-26T01:46:11.001Z,3.1
2017-04-26T01:46:29.635Z,3.1
2017-04-26T01:46:48.270Z,3.1
2017-04-26T01:47:06.913Z,3.1
2017-04-26T01:47:25.575Z,3.1
2017-04-26T01:47:44.213Z,3.1
2017-04-26T01:48:02.861Z,3.1
2017-04-26T01:48:21.527Z,3.1
2017-04-26T01:48:40.163Z,3.1
2017-04-26T01:48:58.804Z,3.1
2017-04-26T01:49:17.446Z,3.1
2017-04-26T01:49:36.085Z,3.1
2017-04-26T01:49:54.726Z,3.1
2017-04-26T01:50:13.365Z,3.1
2017-04-26T01:50:32.011Z,3.1
2017-04-26T01:50:50.655Z,3.1
2017-04-26T01:51:09.292Z,3.1
2017-04-26T01:51:27.932Z,3.1
2017-04-26T01:51:46.596Z,3.1
2017-04-26T01:52:05.240Z,3.1
2017-04-26T01:52:23.888Z,3.1
2017-04-26T01:52:42.531Z,3.1
2017-04-26T01:53:01.169Z,3.1
2017-04-26T01:53:19.805Z,3.1
2017-04-26T01:53:38.445Z,3.1
2017-04-26T01:53:57.085Z,3.1
2017-04-26T01:54:15.745Z,3.1
2017-04-26T01:54:34.382Z,3.1
2017-04-26T01:54:53.028Z,3.1
2017-04-26T01:55:11.680Z,3.1
2017-04-26T01:55:30.317Z,3.1
2017-04-26T01:55:48.954Z,3.1
2017-04-26T01:56:07.592Z,3.1
2017-04-26T01:56:26.235Z,3.1
2017-04-26T01:56:44.903Z,3.1
2017-04-26T01:57:03.539Z,3.1
2017-04-26T01:57:22.178Z,3.1
2017-04-26T01:57:40.817Z,3.1
2017-04-26T01:57:59.484Z,3.1
2017-04-26T01:58:18.124Z,3.1
2017-04-26T01:58:36.763Z,3.1
2017-04-26T01:58:55.395Z,3.1
2017-04-26T01:59:14.038Z,3.1
2017-04-26T01:59:32.676Z,3.1
2017-04-26T01:59:51.328Z,3.1
2017-04-26T02:00:09.966Z,3.1
2017-04-26T02:00:28.603Z,3.1
2017-04-26T02:00:47.257Z,3.1
2017-04-26T02:01:05.898Z,3.1
2017-04-26T02:01:24.538Z,3.1
2017-04-26T02:01:43.175Z,3.1
2017-04-26T02:02:01.812Z,3.1
2017-04-26T02:02:20.450Z,3.1
2017-04-26T02:02:39.093Z,3.2
2017-04-26T02:02:57.742Z,3.2
2017-04-26T02:03:16.409Z,3.2
2017-04-26T02:03:35.053Z,3.2
2017-04-26T02:03:53.701Z,3.2
2017-04-26T02:04:12.348Z,3.1
2017-04-26T02:04:30.988Z,3.1
2017-04-26T02:04:49.626Z,3.1
2017-04-26T02:05:08.263Z,3.1
2017-04-26T02:05:26.900Z,3.2
2017-04-26T02:05:45.537Z,3.1
2017-04-26T02:06:04.174Z,3.1
2017-04-26T02:06:22.814Z,3.1
2017-04-26T02:06:41.481Z,3.1
2017-04-26T02:07:00.120Z,3.2
2017-04-26T02:07:18.761Z,3.1
2017-04-26T02:07:37.398Z,3.1
2017-04-26T02:07:56.033Z,3.2
2017-04-26T02:08:14.673Z,3.2
2017-04-26T02:08:33.339Z,3.1
2017-04-26T02:08:51.978Z,3.2
2017-04-26T02:09:10.617Z,3.1
2017-04-26T02:09:29.265Z,3.2
2017-04-26T02:09:47.922Z,3.2
2017-04-26T02:10:06.586Z,3.2
2017-04-26T02:10:25.220Z,3.2
2017-04-26T02:10:43.856Z,3.2
2017-04-26T02:11:02.494Z,3.2
2017-04-26T02:11:21.130Z,3.2
2017-04-26T02:11:39.804Z,3.2
2017-04-26T02:11:58.437Z,3.2
2017-04-26T02:12:17.073Z,3.1
2017-04-26T02:12:35.709Z,3.1
2017-04-26T02:12:54.351Z,3.1
2017-04-26T02:13:12.991Z,3.1
2017-04-26T02:13:31.634Z,3.1
2017-04-26T02:13:50.298Z,3.1
2017-04-26T02:14:08.937Z,3.1
2017-04-26T02:14:27.575Z,3.1
2017-04-26T02:14:46.226Z,3.1
2017-04-26T02:15:04.868Z,3.1
2017-04-26T02:15:23.512Z,3.1
2017-04-26T02:15:42.152Z,3.1
2017-04-26T02:16:00.790Z,3.1
2017-04-26T02:16:19.426Z,3.1
2017-04-26T02:16:38.063Z,3.1
2017-04-26T02:16:56.703Z,3.1
2017-04-26T02:17:15.361Z,3.1
2017-04-26T02:17:34.003Z,3.1
2017-04-26T02:17:52.644Z,3.1
2017-04-26T02:18:11.307Z,3.1
2017-04-26T02:18:29.947Z,3.1
2017-04-26T02:18:48.585Z,3.1
2017-04-26T02:19:07.229Z,3.1
2017-04-26T02:19:25.867Z,3.1
2017-04-26T02:19:44.508Z,3.1
2017-04-26T02:20:03.147Z,3.1
2017-04-26T02:20:21.785Z,3.1
2017-04-26T02:20:40.418Z,3.1
2017-04-26T02:20:59.055Z,3.1
2017-04-26T02:21:17.694Z,3.1
2017-04-26T02:21:36.363Z,3.1
2017-04-26T02:21:55.018Z,3.1
2017-04-26T02:22:13.657Z,3.1
2017-04-26T02:22:32.294Z,3.1
2017-04-26T02:22:50.927Z,3.1
2017-04-26T02:23:09.571Z,3.1
2017-04-26T02:23:28.213Z,3.1
2017-04-26T02:23:46.858Z,3.1
2017-04-26T02:24:05.501Z,3.1
2017-04-26T02:24:24.166Z,3.1
2017-04-26T02:24:42.824Z,3.1
2017-04-26T02:25:01.488Z,3.1
2017-04-26T02:25:20.128Z,3.1
2017-04-26T02:25:38.771Z,3.1
2017-04-26T02:25:57.413Z,3
2017-04-26T02:26:16.052Z,3
2017-04-26T02:26:34.722Z,3
2017-04-26T02:26:53.358Z,3
2017-04-26T02:27:11.996Z,3
2017-04-26T02:27:30.633Z,3
2017-04-26T02:27:49.271Z,3
2017-04-26T02:28:07.910Z,3
2017-04-26T02:28:26.553Z,3
2017-04-26T02:28:45.192Z,3
2017-04-26T02:29:03.833Z,3
2017-04-26T02:29:22.479Z,3
2017-04-26T02:29:41.140Z,3
2017-04-26T02:29:59.802Z,3
2017-04-26T02:30:18.445Z,2.9
2017-04-26T02:30:37.081Z,2.9
2017-04-26T02:30:55.716Z,2.9
2017-04-26T02:31:14.363Z,2.9
2017-04-26T02:31:33.009Z,2.9
2017-04-26T02:31:51.645Z,2.9
2017-04-26T02:32:10.281Z,2.9
2017-04-26T02:32:28.921Z,2.9
2017-04-26T02:32:47.562Z,2.9
2017-04-26T02:33:06.218Z,2.9
2017-04-26T02:33:24.852Z,2.9
2017-04-26T02:33:43.485Z,2.9
2017-04-26T02:34:02.124Z,2.9
2017-04-26T02:34:20.761Z,2.9
2017-04-26T02:34:39.402Z,2.8
2017-04-26T02:34:58.056Z,2.9
2017-04-26T02:35:16.694Z,2.8
2017-04-26T02:35:35.334Z,2.9
2017-04-26T02:35:53.980Z,2.8
2017-04-26T02:36:12.613Z,2.9
2017-04-26T02:36:31.277Z,2.8
2017-04-26T02:36:49.911Z,2.8
2017-04-26T02:37:08.543Z,2.8
2017-04-26T02:37:27.182Z,2.8
2017-04-26T02:37:45.821Z,2.8
2017-04-26T02:38:04.456Z,2.8
2017-04-26T02:38:23.094Z,2.8
2017-04-26T02:38:41.730Z,2.8
2017-04-26T02:39:00.370Z,2.8
2017-04-26T02:39:19.009Z,2.8
2017-04-26T02:39:37.648Z,2.8
2017-04-26T02:39:56.338Z,2.8
2017-04-26T02:40:14.989Z,2.8
2017-04-26T02:40:33.627Z,2.8
2017-04-26T02:40:52.263Z,2.9
2017-04-26T02:41:10.898Z,2.8
2017-04-26T02:41:29.545Z,2.9
2017-04-26T02:41:48.178Z,2.9
2017-04-26T02:42:06.815Z,2.8
2017-04-26T02:42:25.455Z,2.8
2017-04-26T02:42:44.099Z,2.8
2017-04-26T02:43:02.738Z,2.8
2017-04-26T02:43:21.403Z,2.8
2017-04-26T02:43:40.050Z,2.8
2017-04-26T02:43:58.687Z,2.8
2017-04-26T02:44:17.328Z,2.8
2017-04-26T02:44:35.965Z,2.8
2017-04-26T02:44:54.618Z,2.8
2017-04-26T02:45:13.258Z,2.8
2017-04-26T02:45:31.913Z,2.8
2017-04-26T02:45:50.548Z,2.8
2017-04-26T02:46:09.193Z,2.8
2017-04-26T02:46:27.831Z,2.8
2017-04-26T02:46:46.475Z,2.8
2017-04-26T02:47:05.107Z,2.8
2017-04-26T02:47:23.746Z,2.8
2017-04-26T02:47:42.387Z,2.8
2017-04-26T02:48:01.020Z,2.8
2017-04-26T02:48:19.686Z,2.8
2017-04-26T02:48:38.325Z,2.8
2017-04-26T02:48:56.966Z,2.8
2017-04-26T02:49:15.605Z,2.8
2017-04-26T02:49:34.244Z,2.8
2017-04-26T02:49:52.879Z,2.8
2017-04-26T02:50:11.516Z,2.8
2017-04-26T02:50:30.154Z,2.8
2017-04-26T02:50:48.792Z,2.8
2017-04-26T02:51:07.431Z,2.8
2017-04-26T02:51:26.080Z,2.8
2017-04-26T02:51:44.723Z,2.8
2017-04-26T02:52:03.363Z,2.8
2017-04-26T02:52:22.010Z,2.8
2017-04-26T02:52:40.643Z,2.8
2017-04-26T02:52:59.277Z,2.8
2017-04-26T02:53:17.919Z,2.8
2017-04-26T02:53:36.558Z,2.8
2017-04-26T02:53:55.215Z,2.8
2017-04-26T02:54:13.851Z,2.8
2017-04-26T02:54:32.488Z,2.8
2017-04-26T02:54:51.143Z,2.8
2017-04-26T02:55:09.805Z,2.8
2017-04-26T02:55:28.439Z,2.8
2017-04-26T02:55:47.071Z,2.8
2017-04-26T02:56:05.733Z,2.8
2017-04-26T02:56:24.373Z,2.8
2017-04-26T02:56:43.007Z,2.8
2017-04-26T02:57:01.645Z,2.8
2017-04-26T02:57:20.281Z,2.8
2017-04-26T02:57:38.918Z,2.8
2017-04-26T02:57:57.558Z,2.8
2017-04-26T02:58:16.224Z,2.8
2017-04-26T02:58:34.861Z,2.8
2017-04-26T02:58:53.501Z,2.7
2017-04-26T02:59:12.138Z,2.7
2017-04-26T02:59:30.781Z,2.7
2017-04-26T02:59:49.419Z,2.7
2017-04-26T03:00:08.054Z,2.7
2017-04-26T03:00:26.700Z,2.7
2017-04-26T03:00:45.337Z,2.7
2017-04-26T03:01:03.978Z,2.7
2017-04-26T03:01:22.626Z,2.7
2017-04-26T03:01:41.291Z,2.7
2017-04-26T03:01:59.930Z,2.7
2017-04-26T03:02:18.583Z,2.7
2017-04-26T03:02:37.219Z,2.7
2017-04-26T03:02:55.852Z,2.6
2017-04-26T03:03:14.489Z,2.6
2017-04-26T03:03:33.128Z,2.6
2017-04-26T03:03:51.765Z,2.6
2017-04-26T03:04:10.399Z,2.6
2017-04-26T03:04:29.035Z,2.6
2017-04-26T03:04:47.670Z,2.6
2017-04-26T03:05:06.346Z,2.6
2017-04-26T03:05:24.985Z,2.6
2017-04-26T03:05:43.621Z,2.6
2017-04-26T03:06:02.259Z,2.6
2017-04-26T03:06:20.895Z,2.6
2017-04-26T03:06:39.596Z,2.6
2017-04-26T03:06:58.234Z,2.6
2017-04-26T03:07:16.870Z,2.6
2017-04-26T03:07:35.508Z,2.6
2017-04-26T03:07:54.148Z,2.6
2017-04-26T03:08:12.787Z,2.6
2017-04-26T03:08:31.425Z,2.6
2017-04-26T03:08:50.064Z,2.5
2017-04-26T03:09:08.702Z,2.5
2017-04-26T03:09:27.343Z,2.6
2017-04-26T03:09:45.996Z,2.6
2017-04-26T03:10:04.639Z,2.6
2017-04-26T03:10:23.301Z,2.6
2017-04-26T03:10:41.941Z,2.6
2017-04-26T03:11:00.581Z,2.6
2017-04-26T03:11:19.218Z,2.6
2017-04-26T03:11:37.861Z,2.6
2017-04-26T03:11:56.507Z,2.6
2017-04-26T03:12:15.147Z,2.6
2017-04-26T03:12:33.785Z,2.6
2017-04-26T03:12:52.421Z,2.6
2017-04-26T03:13:11.076Z,2.6
2017-04-26T03:13:29.714Z,2.6
2017-04-26T03:13:48.352Z,2.6
2017-04-26T03:14:06.994Z,2.6
2017-04-26T03:14:25.634Z,2.6
2017-04-26T03:14:44.272Z,2.6
2017-04-26T03:15:02.910Z,2.6
2017-04-26T03:15:21.552Z,2.6
2017-04-26T03:15:40.186Z,2.6
2017-04-26T03:15:58.822Z,2.6
2017-04-26T03:16:17.460Z,2.6
2017-04-26T03:16:36.126Z,2.6
2017-04-26T03:16:54.767Z,2.6
2017-04-26T03:17:13.434Z,2.6
2017-04-26T03:17:32.081Z,2.6
2017-04-26T03:17:50.719Z,2.6
2017-04-26T03:18:09.366Z,2.6
2017-04-26T03:18:28.009Z,2.6
2017-04-26T03:18:46.651Z,2.6
2017-04-26T03:19:05.289Z,2.6
2017-04-26T03:19:23.928Z,2.6
2017-04-26T03:19:42.567Z,2.6
2017-04-26T03:20:01.240Z,2.6
2017-04-26T03:20:19.879Z,2.7
2017-04-26T03:20:38.520Z,2.7
2017-04-26T03:20:57.163Z,2.7
2017-04-26T03:21:15.802Z,2.7
2017-04-26T03:21:34.443Z,2.7
2017-04-26T03:21:53.084Z,2.7
2017-04-26T03:22:11.719Z,2.7
2017-04-26T03:22:30.386Z,2.7
2017-04-26T03:22:49.023Z,2.7
2017-04-26T03:23:07.663Z,2.7
2017-04-26T03:23:26.306Z,2.7
2017-04-26T03:23:44.951Z,2.7
2017-04-26T03:24:03.590Z,2.7
2017-04-26T03:24:22.226Z,2.7
2017-04-26T03:24:40.869Z,2.7
2017-04-26T03:24:59.544Z,2.7
2017-04-26T03:25:18.185Z,2.7
2017-04-26T03:25:36.833Z,2.7
2017-04-26T03:25:55.478Z,2.7
2017-04-26T03:26:14.120Z,2.7
2017-04-26T03:26:32.754Z,2.7
2017-04-26T03:26:51.393Z,2.7
2017-04-26T03:27:10.032Z,2.7
2017-04-26T03:27:28.669Z,2.7
2017-04-26T03:27:47.332Z,2.7
2017-04-26T03:28:05.996Z,2.7
2017-04-26T03:28:24.634Z,2.7
2017-04-26T03:28:43.272Z,2.7
2017-04-26T03:29:01.909Z,2.7
2017-04-26T03:29:20.546Z,2.7
2017-04-26T03:29:39.186Z,2.7
2017-04-26T03:29:57.830Z,2.7
2017-04-26T03:30:16.476Z,2.7
2017-04-26T03:30:35.111Z,2.7
2017-04-26T03:30:53.747Z,2.7
2017-04-26T03:31:12.387Z,2.7
2017-04-26T03:31:31.054Z,2.6
2017-04-26T03:31:49.694Z,2.7
2017-04-26T03:32:08.330Z,2.6
2017-04-26T03:32:26.968Z,2.6
2017-04-26T03:32:45.609Z,2.6
2017-04-26T03:33:04.270Z,2.6
2017-04-26T03:33:22.907Z,2.6
2017-04-26T03:33:41.546Z,2.6
2017-04-26T03:34:00.180Z,2.6
2017-04-26T03:34:18.819Z,2.6
2017-04-26T03:34:37.463Z,2.6
2017-04-26T03:34:56.135Z,2.6
2017-04-26T03:35:14.776Z,2.6
2017-04-26T03:35:33.428Z,2.6
2017-04-26T03:35:52.062Z,2.6
2017-04-26T03:36:10.700Z,2.6
2017-04-26T03:36:29.337Z,2.6
2017-04-26T03:36:47.976Z,2.6
2017-04-26T03:37:06.616Z,2.6
2017-04-26T03:37:25.253Z,2.6
2017-04-26T03:37:43.892Z,2.6
2017-04-26T03:38:02.533Z,2.6
2017-04-26T03:38:21.214Z,2.6
2017-04-26T03:38:39.851Z,2.6
2017-04-26T03:38:58.487Z,2.6
2017-04-26T03:39:17.124Z,2.6
2017-04-26T03:39:35.761Z,2.6
2017-04-26T03:39:54.437Z,2.6
2017-04-26T03:40:13.071Z,2.5
2017-04-26T03:40:31.707Z,2.5
2017-04-26T03:40:50.371Z,2.5
2017-04-26T03:41:09.011Z,2.5
2017-04-26T03:41:27.650Z,2.5
2017-04-26T03:41:46.292Z,2.5
2017-04-26T03:42:04.930Z,2.5
2017-04-26T03:42:23.566Z,2.5
2017-04-26T03:42:42.207Z,2.5
2017-04-26T03:43:00.862Z,2.5
2017-04-26T03:43:19.505Z,2.6
2017-04-26T03:43:38.152Z,2.6
2017-04-26T03:43:56.786Z,2.5
2017-04-26T03:44:15.426Z,2.5
2017-04-26T03:44:34.064Z,2.5
2017-04-26T03:44:52.701Z,2.5
2017-04-26T03:45:11.336Z,2.5
2017-04-26T03:45:29.975Z,2.5
2017-04-26T03:45:48.612Z,2.5
2017-04-26T03:46:07.254Z,2.5
2017-04-26T03:46:25.908Z,2.5
2017-04-26T03:46:44.547Z,2.5
2017-04-26T03:47:03.185Z,2.5
2017-04-26T03:47:21.821Z,2.5
2017-04-26T03:47:40.455Z,2.5
2017-04-26T03:47:59.092Z,2.5
2017-04-26T03:48:17.727Z,2.5
2017-04-26T03:48:36.393Z,2.5
2017-04-26T03:48:55.065Z,2.5
2017-04-26T03:49:13.703Z,2.5
2017-04-26T03:49:32.349Z,2.5
2017-04-26T03:49:51.019Z,2.5
2017-04-26T03:50:09.662Z,2.5
2017-04-26T03:50:28.311Z,2.5
2017-04-26T03:50:46.948Z,2.5
2017-04-26T03:51:05.584Z,2.5
2017-04-26T03:51:24.228Z,2.5
2017-04-26T03:51:42.866Z,2.5
2017-04-26T03:52:01.503Z,2.5
2017-04-26T03:52:20.138Z,2.5
2017-04-26T03:52:38.773Z,2.5
2017-04-26T03:52:57.407Z,2.4
2017-04-26T03:53:16.075Z,2.4
2017-04-26T03:53:34.717Z,2.4
2017-04-26T03:53:53.352Z,2.4
2017-04-26T03:54:11.995Z,2.4
2017-04-26T03:54:30.633Z,2.4
2017-04-26T03:54:49.270Z,2.4
2017-04-26T03:55:07.909Z,2.4
2017-04-26T03:55:26.548Z,2.4
2017-04-26T03:55:45.185Z,2.4
2017-04-26T03:56:03.841Z,2.4
2017-04-26T03:56:22.481Z,2.4
2017-04-26T03:56:41.137Z,2.4
2017-04-26T03:56:59.804Z,2.4
2017-04-26T03:57:18.451Z,2.4
2017-04-26T03:57:37.089Z,2.4
2017-04-26T03:57:55.726Z,2.4
2017-04-26T03:58:14.395Z,2.4
2017-04-26T03:58:33.035Z,2.4
2017-04-26T03:58:51.670Z,2.4
2017-04-26T03:59:10.306Z,2.4
2017-04-26T03:59:28.972Z,2.4
2017-04-26T03:59:47.610Z,2.4
2017-04-26T04:00:06.249Z,2.4
2017-04-26T04:00:24.887Z,2.4
2017-04-26T04:00:43.523Z,2.4
2017-04-26T04:01:02.163Z,2.4
2017-04-26T04:01:20.816Z,2.4
2017-04-26T04:01:39.454Z,2.4
2017-04-26T04:01:58.090Z,2.4
2017-04-26T04:02:16.739Z,2.4
2017-04-26T04:02:35.375Z,2.4
2017-04-26T04:02:54.018Z,2.4
2017-04-26T04:03:12.658Z,2.4
2017-04-26T04:03:31.297Z,2.4
2017-04-26T04:03:49.933Z,2.4
2017-04-26T04:04:08.570Z,2.4
2017-04-26T04:04:27.206Z,2.4
2017-04-26T04:04:45.877Z,2.4
2017-04-26T04:05:04.516Z,2.4
2017-04-26T04:05:23.153Z,2.4
2017-04-26T04:05:41.788Z,2.4
2017-04-26T04:06:00.420Z,2.4
2017-04-26T04:06:19.060Z,2.4
2017-04-26T04:06:37.699Z,2.4
2017-04-26T04:06:56.338Z,2.4
2017-04-26T04:07:14.973Z,2.4
2017-04-26T04:07:33.606Z,2.4
2017-04-26T04:07:52.250Z,2.4
2017-04-26T04:08:10.917Z,2.4
2017-04-26T04:08:29.553Z,2.4
2017-04-26T04:08:48.187Z,2.4
2017-04-26T04:09:06.825Z,2.4
2017-04-26T04:09:25.463Z,2.4
2017-04-26T04:09:44.103Z,2.4
2017-04-26T04:10:02.771Z,2.4
2017-04-26T04:10:21.411Z,2.4
2017-04-26T04:10:40.049Z,2.4
2017-04-26T04:10:58.689Z,2.4
2017-04-26T04:11:17.337Z,2.4
2017-04-26T04:11:35.996Z,2.4
2017-04-26T04:11:54.631Z,2.3
2017-04-26T04:12:13.268Z,2.3
2017-04-26T04:12:31.906Z,2.3
2017-04-26T04:12:50.571Z,2.3
2017-04-26T04:13:09.212Z,2.3
2017-04-26T04:13:27.852Z,2.3
2017-04-26T04:13:46.488Z,2.3
2017-04-26T04:14:05.124Z,2.3
2017-04-26T04:14:23.768Z,2.3
2017-04-26T04:14:42.405Z,2.3
2017-04-26T04:15:01.065Z,2.3
2017-04-26T04:15:19.727Z,2.2
2017-04-26T04:15:38.392Z,2.2
2017-04-26T04:15:57.037Z,2.2
2017-04-26T04:16:15.687Z,2.2
2017-04-26T04:16:34.346Z,2.2
2017-04-26T04:16:52.988Z,2.2
2017-04-26T04:17:11.629Z,2.2
2017-04-26T04:17:30.263Z,2.2
2017-04-26T04:17:48.910Z,2.2
2017-04-26T04:18:07.552Z,2.2
2017-04-26T04:18:26.193Z,2.2
2017-04-26T04:18:44.832Z,2.2